Framingham, Massachusetts
Current Conditions -  °F | °C
As of 12:53 AM on Sunday 26 Oct 2014 (Local Time) from KOWD Reporting Station
Overcast Overcast  
Wind Chill: 55°   Ceiling: 11000
Heat Index: 55°   Visibility: 10mi
Dew Point: 47°   Wind: 6mph
Humidity: 74%   Direction: 260°W
Pressure: 29.49"   Gusts: NA
Location:  42.28°N, 71.42°W
Report Text: KOWD 260453Z AUTO 26005KT 10SM OVC110 13/08 A2949 RMK AO2 SLP984 T01280083 401830056
Loading
Personal Weather Stations






























Interactive Weather Map
Tropical Storm Tracking
New forecast layout! Learn more

10-Day Weather Forecast

Advertisements
Track Severe Weather on mobile